sensor_id;sensor_type;location;lat;lon;timestamp;pressure;altitude;pressure_sealevel;temperature;humidity
74346;BME280;62776;50.518;6.732;2023-08-31T00:01:20;95886.06;;;12.64;100.00
74346;BME280;62776;50.518;6.732;2023-08-31T00:04:06;95890.25;;;12.70;100.00
74346;BME280;62776;50.518;6.732;2023-08-31T00:07:00;95894.59;;;12.69;100.00
74346;BME280;62776;50.518;6.732;2023-08-31T00:09:46;95895.53;;;12.67;100.00
74346;BME280;62776;50.518;6.732;2023-08-31T00:12:33;95892.94;;;12.67;100.00
74346;BME280;62776;50.518;6.732;2023-08-31T00:15:20;95892.00;;;12.69;100.00
74346;BME280;62776;50.518;6.732;2023-08-31T00:18:06;95894.56;;;12.71;100.00
74346;BME280;62776;50.518;6.732;2023-08-31T00:20:52;95881.56;;;12.69;100.00
74346;BME280;62776;50.518;6.732;2023-08-31T00:23:39;95894.59;;;12.69;100.00
74346;BME280;62776;50.518;6.732;2023-08-31T00:26:25;95889.38;;;12.69;100.00
74346;BME280;62776;50.518;6.732;2023-08-31T00:29:12;95879.81;;;12.70;100.00
74346;BME280;62776;50.518;6.732;2023-08-31T00:32:00;95883.28;;;12.70;100.00
74346;BME280;62776;50.518;6.732;2023-08-31T00:34:47;95885.97;;;12.67;100.00
74346;BME280;62776;50.518;6.732;2023-08-31T00:37:33;95884.22;;;12.68;100.00
74346;BME280;62776;50.518;6.732;2023-08-31T00:40:23;95887.81;;;12.64;100.00
74346;BME280;62776;50.518;6.732;2023-08-31T00:43:10;95893.66;;;12.72;100.00
74346;BME280;62776;50.518;6.732;2023-08-31T00:45:57;95879.72;;;12.73;100.00
74346;BME280;62776;50.518;6.732;2023-08-31T00:48:44;95884.06;;;12.74;100.00
74346;BME280;62776;50.518;6.732;2023-08-31T00:51:30;95879.63;;;12.76;100.00
74346;BME280;62776;50.518;6.732;2023-08-31T00:54:20;95869.38;;;12.70;100.00
74346;BME280;62776;50.518;6.732;2023-08-31T00:57:09;95877.28;;;12.37;100.00
74346;BME280;62776;50.518;6.732;2023-08-31T00:59:55;95881.56;;;12.69;100.00
74346;BME280;62776;50.518;6.732;2023-08-31T01:05:55;95884.56;;;12.56;100.00
74346;BME280;62776;50.518;6.732;2023-08-31T01:09:05;95890.31;;;12.67;100.00
74346;BME280;62776;50.518;6.732;2023-08-31T01:11:56;95878.84;;;12.74;100.00
74346;BME280;62776;50.518;6.732;2023-08-31T01:14:57;95880.03;;;12.62;100.00
74346;BME280;62776;50.518;6.732;2023-08-31T01:17:51;95869.47;;;12.67;100.00
74346;BME280;62776;50.518;6.732;2023-08-31T01:20:52;95867.00;;;12.62;100.00
74346;BME280;62776;50.518;6.732;2023-08-31T01:23:56;95873.25;;;12.57;100.00
74346;BME280;62776;50.518;6.732;2023-08-31T01:26:44;95864.25;;;12.67;100.00
74346;BME280;62776;50.518;6.732;2023-08-31T01:29:30;95870.50;;;12.61;100.00
74346;BME280;62776;50.518;6.732;2023-08-31T01:32:17;95865.28;;;12.61;100.00
74346;BME280;62776;50.518;6.732;2023-08-31T01:35:06;95864.47;;;12.61;100.00
74346;BME280;62776;50.518;6.732;2023-08-31T01:38:02;95877.13;;;12.43;100.00
74346;BME280;62776;50.518;6.732;2023-08-31T01:40:57;95877.03;;;12.47;100.00
74346;BME280;62776;50.518;6.732;2023-08-31T01:43:47;95878.78;;;12.46;100.00
74346;BME280;62776;50.518;6.732;2023-08-31T01:46:35;95883.00;;;12.50;100.00
74346;BME280;62776;50.518;6.732;2023-08-31T01:49:21;95890.88;;;12.49;100.00
74346;BME280;62776;50.518;6.732;2023-08-31T01:52:08;95889.16;;;12.48;100.00
74346;BME280;62776;50.518;6.732;2023-08-31T01:54:54;95886.69;;;12.43;100.00
74346;BME280;62776;50.518;6.732;2023-08-31T01:57:40;95889.50;;;12.35;100.00
74346;BME280;62776;50.518;6.732;2023-08-31T02:00:27;95885.31;;;12.30;100.00
74346;BME280;62776;50.518;6.732;2023-08-31T02:03:14;95899.47;;;12.21;100.00
74346;BME280;62776;50.518;6.732;2023-08-31T02:06:00;95895.28;;;12.14;100.00
74346;BME280;62776;50.518;6.732;2023-08-31T02:08:47;95892.94;;;12.05;100.00
74346;BME280;62776;50.518;6.732;2023-08-31T02:11:33;95895.72;;;11.99;100.00
74346;BME280;62776;50.518;6.732;2023-08-31T02:14:23;95891.53;;;11.94;100.00
74346;BME280;62776;50.518;6.732;2023-08-31T02:17:10;95902.91;;;11.90;100.00
74346;BME280;62776;50.518;6.732;2023-08-31T02:19:56;95902.13;;;11.86;100.00
74346;BME280;62776;50.518;6.732;2023-08-31T02:22:43;95897.16;;;11.77;100.00
74346;BME280;62776;50.518;6.732;2023-08-31T02:25:30;95898.97;;;11.73;100.00
74346;BME280;62776;50.518;6.732;2023-08-31T02:28:16;95904.31;;;11.69;100.00
74346;BME280;62776;50.518;6.732;2023-08-31T02:31:05;95909.59;;;11.64;100.00
74346;BME280;62776;50.518;6.732;2023-08-31T02:33:51;95905.41;;;11.59;100.00
74346;BME280;62776;50.518;6.732;2023-08-31T02:36:40;95915.09;;;11.52;100.00
74346;BME280;62776;50.518;6.732;2023-08-31T02:39:26;95912.63;;;11.46;100.00
74346;BME280;62776;50.518;6.732;2023-08-31T02:42:16;95920.53;;;11.43;100.00
74346;BME280;62776;50.518;6.732;2023-08-31T02:45:02;95925.03;;;11.37;100.00
74346;BME280;62776;50.518;6.732;2023-08-31T02:47:49;95925.09;;;11.34;100.00
74346;BME280;62776;50.518;6.732;2023-08-31T02:50:36;95918.25;;;11.30;100.00
74346;BME280;62776;50.518;6.732;2023-08-31T02:53:22;95920.97;;;11.25;100.00
74346;BME280;62776;50.518;6.732;2023-08-31T02:56:08;95920.16;;;11.23;100.00
74346;BME280;62776;50.518;6.732;2023-08-31T02:58:55;95920.22;;;11.18;100.00
74346;BME280;62776;50.518;6.732;2023-08-31T03:01:42;95920.31;;;11.15;100.00
74346;BME280;62776;50.518;6.732;2023-08-31T03:04:34;95918.75;;;11.08;100.00
74346;BME280;62776;50.518;6.732;2023-08-31T03:07:21;95921.28;;;11.11;100.00
74346;BME280;62776;50.518;6.732;2023-08-31T03:10:07;95917.88;;;11.08;100.00
74346;BME280;62776;50.518;6.732;2023-08-31T03:12:58;95927.47;;;11.04;100.00
74346;BME280;62776;50.518;6.732;2023-08-31T03:15:44;95926.66;;;11.02;100.00
74346;BME280;62776;50.518;6.732;2023-08-31T03:18:45;95929.63;;;10.86;100.00
74346;BME280;62776;50.518;6.732;2023-08-31T03:21:42;95928.56;;;10.96;100.00
74346;BME280;62776;50.518;6.732;2023-08-31T03:24:28;95927.78;;;10.92;100.00
74346;BME280;62776;50.518;6.732;2023-08-31T03:27:15;95931.31;;;10.90;100.00
74346;BME280;62776;50.518;6.732;2023-08-31T03:30:05;95933.03;;;10.89;100.00
74346;BME280;62776;50.518;6.732;2023-08-31T03:32:52;95938.25;;;10.89;100.00
74346;BME280;62776;50.518;6.732;2023-08-31T03:35:38;95937.41;;;10.87;100.00
74346;BME280;62776;50.518;6.732;2023-08-31T03:38:25;95928.81;;;10.84;100.00
74346;BME280;62776;50.518;6.732;2023-08-31T03:41:11;95932.31;;;10.83;100.00
74346;BME280;62776;50.518;6.732;2023-08-31T03:43:58;95923.69;;;10.81;100.00
74346;BME280;62776;50.518;6.732;2023-08-31T03:46:45;95922.00;;;10.78;100.00
74346;BME280;62776;50.518;6.732;2023-08-31T03:49:31;95925.44;;;10.80;100.00
74346;BME280;62776;50.518;6.732;2023-08-31T03:52:21;95931.53;;;10.78;100.00
74346;BME280;62776;50.518;6.732;2023-08-31T03:55:07;95930.66;;;10.79;100.00
74346;BME280;62776;50.518;6.732;2023-08-31T03:57:54;95933.16;;;10.83;100.00
74346;BME280;62776;50.518;6.732;2023-08-31T04:00:40;95927.03;;;10.87;100.00
74346;BME280;62776;50.518;6.732;2023-08-31T04:03:27;95933.84;;;10.91;100.00
74346;BME280;62776;50.518;6.732;2023-08-31T04:06:14;95929.47;;;10.93;100.00
74346;BME280;62776;50.518;6.732;2023-08-31T04:09:00;95936.25;;;11.00;100.00
74346;BME280;62776;50.518;6.732;2023-08-31T04:11:50;95939.66;;;11.04;100.00
74346;BME280;62776;50.518;6.732;2023-08-31T04:14:36;95934.41;;;11.05;100.00
74346;BME280;62776;50.518;6.732;2023-08-31T04:17:25;95941.47;;;11.00;100.00
74346;BME280;62776;50.518;6.732;2023-08-31T04:20:12;95937.97;;;11.01;100.00
74346;BME280;62776;50.518;6.732;2023-08-31T04:22:58;95938.03;;;10.98;100.00
74346;BME280;62776;50.518;6.732;2023-08-31T04:25:46;95935.47;;;10.97;100.00
74346;BME280;62776;50.518;6.732;2023-08-31T04:32:09;95940.91;;;10.86;100.00
74346;BME280;62776;50.518;6.732;2023-08-31T04:42:07;95945.06;;;10.95;100.00
74346;BME280;62776;50.518;6.732;2023-08-31T04:45:08;95950.13;;;10.99;100.00
74346;BME280;62776;50.518;6.732;2023-08-31T04:47:59;95961.22;;;11.07;100.00
74346;BME280;62776;50.518;6.732;2023-08-31T04:51:02;95964.69;;;11.09;100.00
74346;BME280;62776;50.518;6.732;2023-08-31T04:54:20;95964.88;;;11.00;100.00
74346;BME280;62776;50.518;6.732;2023-08-31T04:57:34;95966.44;;;11.07;100.00
74346;BME280;62776;50.518;6.732;2023-08-31T05:00:44;95972.63;;;11.02;100.00
74346;BME280;62776;50.518;6.732;2023-08-31T05:03:49;95973.25;;;11.13;100.00
74346;BME280;62776;50.518;6.732;2023-08-31T05:06:35;95974.09;;;11.13;100.00
74346;BME280;62776;50.518;6.732;2023-08-31T05:09:23;95981.91;;;11.15;100.00
74346;BME280;62776;50.518;6.732;2023-08-31T05:12:10;95978.38;;;11.17;100.00
74346;BME280;62776;50.518;6.732;2023-08-31T05:14:56;95980.00;;;11.21;100.00
74346;BME280;62776;50.518;6.732;2023-08-31T05:17:43;95985.06;;;11.27;100.00
74346;BME280;62776;50.518;6.732;2023-08-31T05:20:29;95988.47;;;11.31;100.00
74346;BME280;62776;50.518;6.732;2023-08-31T05:23:23;95997.16;;;11.30;100.00
74346;BME280;62776;50.518;6.732;2023-08-31T05:26:09;96005.34;;;11.52;100.00
74346;BME280;62776;50.518;6.732;2023-08-31T05:28:56;95996.38;;;11.63;100.00
74346;BME280;62776;50.518;6.732;2023-08-31T05:31:42;95995.28;;;11.75;100.00
74346;BME280;62776;50.518;6.732;2023-08-31T05:34:29;96008.97;;;11.83;100.00
74346;BME280;62776;50.518;6.732;2023-08-31T05:37:16;96005.38;;;11.87;100.00
74346;BME280;62776;50.518;6.732;2023-08-31T05:40:06;96013.19;;;11.87;100.00
74346;BME280;62776;50.518;6.732;2023-08-31T05:42:55;96009.59;;;11.93;100.00
74346;BME280;62776;50.518;6.732;2023-08-31T05:45:42;96014.72;;;11.96;100.00
74346;BME280;62776;50.518;6.732;2023-08-31T05:48:29;96020.81;;;11.96;100.00
74346;BME280;62776;50.518;6.732;2023-08-31T05:51:15;96018.94;;;12.01;100.00
74346;BME280;62776;50.518;6.732;2023-08-31T06:00:57;96023.94;;;12.10;100.00
74346;BME280;62776;50.518;6.732;2023-08-31T06:04:12;96024.13;;;12.03;100.00
74346;BME280;62776;50.518;6.732;2023-08-31T06:07:23;96035.13;;;12.14;100.00
74346;BME280;62776;50.518;6.732;2023-08-31T06:16:51;96042.44;;;12.33;100.00
74346;BME280;62776;50.518;6.732;2023-08-31T06:19:41;96045.69;;;12.41;100.00
74346;BME280;62776;50.518;6.732;2023-08-31T06:22:27;96047.19;;;12.52;100.00
74346;BME280;62776;50.518;6.732;2023-08-31T06:25:13;96049.59;;;12.59;100.00
74346;BME280;62776;50.518;6.732;2023-08-31T06:28:02;96052.97;;;12.63;100.00
74346;BME280;62776;50.518;6.732;2023-08-31T06:30:52;96053.00;;;12.61;100.00
74346;BME280;62776;50.518;6.732;2023-08-31T06:33:40;96050.22;;;12.69;100.00
74346;BME280;62776;50.518;6.732;2023-08-31T06:40:19;96055.47;;;12.67;100.00
74346;BME280;62776;50.518;6.732;2023-08-31T06:47:10;96061.53;;;12.68;100.00
74346;BME280;62776;50.518;6.732;2023-08-31T06:50:39;96058.78;;;12.74;100.00
74346;BME280;62776;50.518;6.732;2023-08-31T06:54:12;96055.66;;;12.60;100.00
74346;BME280;62776;50.518;6.732;2023-08-31T07:08:12;96070.97;;;13.04;100.00
74346;BME280;62776;50.518;6.732;2023-08-31T07:10:58;96073.34;;;13.13;100.00
74346;BME280;62776;50.518;6.732;2023-08-31T07:13:50;96074.09;;;13.18;100.00
74346;BME280;62776;50.518;6.732;2023-08-31T07:17:01;96081.81;;;13.21;100.00
74346;BME280;62776;50.518;6.732;2023-08-31T07:20:08;96083.78;;;13.44;100.00
74346;BME280;62776;50.518;6.732;2023-08-31T07:23:21;96085.25;;;13.54;100.00
74346;BME280;62776;50.518;6.732;2023-08-31T07:26:07;96085.81;;;13.64;100.00
74346;BME280;62776;50.518;6.732;2023-08-31T07:28:54;96079.56;;;13.69;100.00
74346;BME280;62776;50.518;6.732;2023-08-31T07:31:44;96086.41;;;13.73;100.00
74346;BME280;62776;50.518;6.732;2023-08-31T07:34:30;96092.09;;;13.86;100.00
74346;BME280;62776;50.518;6.732;2023-08-31T07:37:17;96092.63;;;13.97;100.00
74346;BME280;62776;50.518;6.732;2023-08-31T07:40:04;96093.25;;;14.05;100.00
74346;BME280;62776;50.518;6.732;2023-08-31T07:42:55;96095.69;;;14.11;100.00
74346;BME280;62776;50.518;6.732;2023-08-31T07:45:42;96095.31;;;14.22;100.00
74346;BME280;62776;50.518;6.732;2023-08-31T07:48:28;96103.72;;;14.31;100.00
74346;BME280;62776;50.518;6.732;2023-08-31T07:51:15;96109.72;;;14.36;100.00
74346;BME280;62776;50.518;6.732;2023-08-31T07:54:01;96103.34;;;14.45;100.00
74346;BME280;62776;50.518;6.732;2023-08-31T07:56:49;96108.41;;;14.49;100.00
74346;BME280;62776;50.518;6.732;2023-08-31T07:59:36;96112.31;;;14.62;100.00
74346;BME280;62776;50.518;6.732;2023-08-31T08:02:25;96111.91;;;14.74;100.00
74346;BME280;62776;50.518;6.732;2023-08-31T08:05:14;96122.06;;;14.84;100.00
74346;BME280;62776;50.518;6.732;2023-08-31T08:08:01;96117.41;;;14.92;100.00
74346;BME280;62776;50.518;6.732;2023-08-31T08:10:51;96118.94;;;14.99;100.00
74346;BME280;62776;50.518;6.732;2023-08-31T08:13:40;96115.06;;;15.09;100.00
74346;BME280;62776;50.518;6.732;2023-08-31T08:16:26;96132.19;;;15.19;100.00
74346;BME280;62776;50.518;6.732;2023-08-31T08:19:13;96122.22;;;15.28;100.00
74346;BME280;62776;50.518;6.732;2023-08-31T08:21:59;96128.16;;;15.33;100.00
74346;BME280;62776;50.518;6.732;2023-08-31T08:24:46;96130.75;;;15.35;100.00
74346;BME280;62776;50.518;6.732;2023-08-31T08:27:32;96127.09;;;15.39;100.00
74346;BME280;62776;50.518;6.732;2023-08-31T08:30:19;96131.97;;;15.50;100.00
74346;BME280;62776;50.518;6.732;2023-08-31T08:33:08;96135.34;;;15.53;100.00
74346;BME280;62776;50.518;6.732;2023-08-31T08:35:57;96132.41;;;15.62;100.00
74346;BME280;62776;50.518;6.732;2023-08-31T08:38:43;96132.03;;;15.71;100.00
74346;BME280;62776;50.518;6.732;2023-08-31T08:41:30;96136.25;;;15.75;100.00
74346;BME280;62776;50.518;6.732;2023-08-31T08:44:21;96132.44;;;15.84;100.00
74346;BME280;62776;50.518;6.732;2023-08-31T08:47:11;96146.91;;;15.94;100.00
74346;BME280;62776;50.518;6.732;2023-08-31T08:49:58;96156.09;;;16.06;100.00
74346;BME280;62776;50.518;6.732;2023-08-31T08:52:46;96152.41;;;16.10;100.00
74346;BME280;62776;50.518;6.732;2023-08-31T08:55:33;96160.25;;;16.11;100.00
74346;BME280;62776;50.518;6.732;2023-08-31T08:58:19;96157.53;;;16.36;100.00
74346;BME280;62776;50.518;6.732;2023-08-31T09:01:07;96166.06;;;16.41;100.00
74346;BME280;62776;50.518;6.732;2023-08-31T09:03:54;96164.22;;;16.43;100.00
74346;BME280;62776;50.518;6.732;2023-08-31T09:06:41;96161.56;;;16.44;100.00
74346;BME280;62776;50.518;6.732;2023-08-31T09:09:28;96164.78;;;16.51;100.00
74346;BME280;62776;50.518;6.732;2023-08-31T09:12:14;96166.41;;;16.55;100.00
74346;BME280;62776;50.518;6.732;2023-08-31T09:15:07;96161.63;;;16.65;100.00
74346;BME280;62776;50.518;6.732;2023-08-31T09:17:53;96170.41;;;16.85;100.00
74346;BME280;62776;50.518;6.732;2023-08-31T09:20:48;96163.38;;;17.07;100.00
74346;BME280;62776;50.518;6.732;2023-08-31T09:23:37;96164.88;;;17.33;100.00
74346;BME280;62776;50.518;6.732;2023-08-31T09:26:38;96158.50;;;17.19;98.01
74346;BME280;62776;50.518;6.732;2023-08-31T09:29:28;96172.34;;;17.02;100.00
74346;BME280;62776;50.518;6.732;2023-08-31T09:32:21;96174.34;;;16.75;100.00
74346;BME280;62776;50.518;6.732;2023-08-31T09:35:11;96179.22;;;16.63;100.00
74346;BME280;62776;50.518;6.732;2023-08-31T09:38:01;96172.88;;;16.68;100.00
74346;BME280;62776;50.518;6.732;2023-08-31T09:40:49;96168.69;;;16.84;100.00
74346;BME280;62776;50.518;6.732;2023-08-31T09:43:44;96162.81;;;16.99;100.00
74346;BME280;62776;50.518;6.732;2023-08-31T09:46:33;96156.91;;;17.15;100.00
74346;BME280;62776;50.518;6.732;2023-08-31T09:49:23;96170.13;;;17.33;100.00
74346;BME280;62776;50.518;6.732;2023-08-31T09:52:20;96166.13;;;17.45;97.53
74346;BME280;62776;50.518;6.732;2023-08-31T09:55:12;96171.19;;;17.69;100.00
74346;BME280;62776;50.518;6.732;2023-08-31T09:58:12;96164.81;;;17.94;97.39
74346;BME280;62776;50.518;6.732;2023-08-31T10:01:02;96168.69;;;18.05;91.66
74346;BME280;62776;50.518;6.732;2023-08-31T10:03:50;96169.81;;;18.18;94.97
74346;BME280;62776;50.518;6.732;2023-08-31T10:06:41;96175.38;;;18.12;90.23
74346;BME280;62776;50.518;6.732;2023-08-31T10:09:28;96178.50;;;18.20;95.36
74346;BME280;62776;50.518;6.732;2023-08-31T10:12:15;96174.44;;;18.13;94.47
74346;BME280;62776;50.518;6.732;2023-08-31T10:15:04;96174.44;;;18.13;96.32
74346;BME280;62776;50.518;6.732;2023-08-31T10:17:55;96172.31;;;18.03;92.74
74346;BME280;62776;50.518;6.732;2023-08-31T10:20:53;96181.31;;;17.97;99.08
74346;BME280;62776;50.518;6.732;2023-08-31T10:23:48;96177.66;;;18.01;98.92
74346;BME280;62776;50.518;6.732;2023-08-31T10:26:41;96182.41;;;18.12;98.06
74346;BME280;62776;50.518;6.732;2023-08-31T10:29:30;96179.78;;;18.31;98.44
74346;BME280;62776;50.518;6.732;2023-08-31T10:32:20;96183.50;;;18.26;92.51
74346;BME280;62776;50.518;6.732;2023-08-31T10:35:09;96181.78;;;18.25;90.28
74346;BME280;62776;50.518;6.732;2023-08-31T10:44:03;96180.66;;;18.85;87.58
74346;BME280;62776;50.518;6.732;2023-08-31T10:47:07;96176.25;;;18.86;76.65
74346;BME280;62776;50.518;6.732;2023-08-31T10:49:54;96184.31;;;18.83;78.97
74346;BME280;62776;50.518;6.732;2023-08-31T10:52:45;96183.59;;;18.79;80.23
74346;BME280;62776;50.518;6.732;2023-08-31T10:55:53;96190.47;;;18.65;81.77
74346;BME280;62776;50.518;6.732;2023-08-31T10:58:40;96182.91;;;18.76;81.78
74346;BME280;62776;50.518;6.732;2023-08-31T11:01:58;96182.63;;;18.63;83.61
74346;BME280;62776;50.518;6.732;2023-08-31T11:05:12;96186.13;;;18.64;80.74
74346;BME280;62776;50.518;6.732;2023-08-31T11:08:02;96177.09;;;18.69;77.96
74346;BME280;62776;50.518;6.732;2023-08-31T11:10:49;96168.81;;;18.77;79.69
74346;BME280;62776;50.518;6.732;2023-08-31T11:13:39;96153.63;;;18.82;80.14
74346;BME280;62776;50.518;6.732;2023-08-31T11:16:31;96154.56;;;18.81;77.09
74346;BME280;62776;50.518;6.732;2023-08-31T11:19:29;96165.78;;;18.84;73.51
74346;BME280;62776;50.518;6.732;2023-08-31T11:22:22;96171.53;;;18.93;74.77
74346;BME280;62776;50.518;6.732;2023-08-31T11:25:15;96159.41;;;19.07;79.34
74346;BME280;62776;50.518;6.732;2023-08-31T11:28:15;96158.78;;;19.19;78.94
74346;BME280;62776;50.518;6.732;2023-08-31T11:31:07;96164.06;;;19.36;80.17
74346;BME280;62776;50.518;6.732;2023-08-31T11:33:59;96164.88;;;19.38;74.60
74346;BME280;62776;50.518;6.732;2023-08-31T11:36:54;96173.81;;;19.34;77.17
74346;BME280;62776;50.518;6.732;2023-08-31T11:39:57;96168.94;;;19.27;74.13
74346;BME280;62776;50.518;6.732;2023-08-31T11:42:58;96174.13;;;19.11;75.60
74346;BME280;62776;50.518;6.732;2023-08-31T11:46:04;96170.38;;;18.98;75.17
74346;BME280;62776;50.518;6.732;2023-08-31T11:49:07;96165.28;;;18.95;72.19
74346;BME280;62776;50.518;6.732;2023-08-31T11:51:57;96166.91;;;18.98;71.79
74346;BME280;62776;50.518;6.732;2023-08-31T11:55:01;96154.44;;;19.01;73.26
74346;BME280;62776;50.518;6.732;2023-08-31T12:06:26;96160.16;;;19.26;78.65
74346;BME280;62776;50.518;6.732;2023-08-31T12:09:24;96158.88;;;19.69;75.76
74346;BME280;62776;50.518;6.732;2023-08-31T12:12:14;96158.34;;;19.95;74.24
74346;BME280;62776;50.518;6.732;2023-08-31T12:15:06;96151.44;;;20.09;70.48
74346;BME280;62776;50.518;6.732;2023-08-31T12:18:09;96165.34;;;20.12;68.64
74346;BME280;62776;50.518;6.732;2023-08-31T12:21:21;96153.88;;;20.13;62.83
74346;BME280;62776;50.518;6.732;2023-08-31T12:24:13;96164.00;;;20.21;65.72
74346;BME280;62776;50.518;6.732;2023-08-31T12:27:04;96162.38;;;20.18;66.48
74346;BME280;62776;50.518;6.732;2023-08-31T12:30:14;96166.78;;;20.35;63.41
74346;BME280;62776;50.518;6.732;2023-08-31T12:33:04;96162.84;;;20.42;61.84
74346;BME280;62776;50.518;6.732;2023-08-31T12:35:59;96157.13;;;20.49;63.57
74346;BME280;62776;50.518;6.732;2023-08-31T12:38:59;96159.44;;;20.55;66.02
74346;BME280;62776;50.518;6.732;2023-08-31T12:41:52;96154.59;;;20.79;65.72
74346;BME280;62776;50.518;6.732;2023-08-31T12:44:46;96155.81;;;20.88;60.84
74346;BME280;62776;50.518;6.732;2023-08-31T12:47:41;96155.59;;;20.77;58.94
74346;BME280;62776;50.518;6.732;2023-08-31T12:50:39;96154.59;;;20.79;62.21
74346;BME280;62776;50.518;6.732;2023-08-31T12:53:27;96155.50;;;20.78;58.79
74346;BME280;62776;50.518;6.732;2023-08-31T12:56:16;96148.28;;;20.66;64.09
74346;BME280;62776;50.518;6.732;2023-08-31T12:59:11;96143.66;;;20.70;62.65
74346;BME280;62776;50.518;6.732;2023-08-31T13:02:06;96149.88;;;20.69;61.80
74346;BME280;62776;50.518;6.732;2023-08-31T13:04:56;96147.34;;;20.67;60.03
74346;BME280;62776;50.518;6.732;2023-08-31T13:07:46;96150.22;;;20.47;61.19
74346;BME280;62776;50.518;6.732;2023-08-31T13:10:34;96154.31;;;20.52;66.40
74346;BME280;62776;50.518;6.732;2023-08-31T13:13:30;96149.56;;;20.59;60.18
74346;BME280;62776;50.518;6.732;2023-08-31T13:16:20;96141.72;;;20.57;60.43
74346;BME280;62776;50.518;6.732;2023-08-31T13:19:10;96141.06;;;20.54;58.31
74346;BME280;62776;50.518;6.732;2023-08-31T13:22:08;96136.94;;;20.33;59.13
74346;BME280;62776;50.518;6.732;2023-08-31T13:25:07;96136.78;;;20.51;60.64
74346;BME280;62776;50.518;6.732;2023-08-31T13:27:53;96142.06;;;20.67;57.16
74346;BME280;62776;50.518;6.732;2023-08-31T13:33:49;96143.78;;;20.68;59.96
74346;BME280;62776;50.518;6.732;2023-08-31T13:36:38;96149.13;;;20.67;55.55
74346;BME280;62776;50.518;6.732;2023-08-31T13:39:25;96142.06;;;20.67;58.33
74346;BME280;62776;50.518;6.732;2023-08-31T13:42:12;96142.41;;;20.61;55.89
74346;BME280;62776;50.518;6.732;2023-08-31T13:45:08;96141.97;;;20.53;55.99
74346;BME280;62776;50.518;6.732;2023-08-31T13:47:58;96147.25;;;20.53;57.20
74346;BME280;62776;50.518;6.732;2023-08-31T13:50:49;96156.81;;;20.40;54.08
74346;BME280;62776;50.518;6.732;2023-08-31T13:53:36;96155.31;;;20.19;54.66
74346;BME280;62776;50.518;6.732;2023-08-31T13:56:33;96159.31;;;19.77;55.70
74346;BME280;62776;50.518;6.732;2023-08-31T13:59:24;96168.53;;;19.86;57.74
74346;BME280;62776;50.518;6.732;2023-08-31T14:02:19;96159.81;;;19.84;57.82
74346;BME280;62776;50.518;6.732;2023-08-31T14:05:19;96159.03;;;19.99;59.44
74346;BME280;62776;50.518;6.732;2023-08-31T14:08:39;96155.09;;;20.06;60.93
74346;BME280;62776;50.518;6.732;2023-08-31T14:11:34;96156.66;;;20.10;60.40
74346;BME280;62776;50.518;6.732;2023-08-31T14:14:31;96155.41;;;19.84;60.66
74346;BME280;62776;50.518;6.732;2023-08-31T14:17:50;96156.53;;;19.63;60.17
74346;BME280;62776;50.518;6.732;2023-08-31T14:20:42;96150.75;;;19.72;62.66
74346;BME280;62776;50.518;6.732;2023-08-31T14:23:29;96150.00;;;19.70;61.41
74346;BME280;62776;50.518;6.732;2023-08-31T14:26:34;96154.38;;;19.54;62.31
74346;BME280;62776;50.518;6.732;2023-08-31T14:29:28;96158.47;;;19.60;62.23
74346;BME280;62776;50.518;6.732;2023-08-31T14:32:15;96156.31;;;20.16;59.80
74346;BME280;62776;50.518;6.732;2023-08-31T14:35:02;96151.34;;;21.93;57.70
74346;BME280;62776;50.518;6.732;2023-08-31T14:40:58;96154.72;;;22.66;50.26
74346;BME280;62776;50.518;6.732;2023-08-31T14:43:45;96147.66;;;22.10;51.32
74346;BME280;62776;50.518;6.732;2023-08-31T14:46:31;96154.03;;;21.77;52.58
74346;BME280;62776;50.518;6.732;2023-08-31T14:49:21;96161.84;;;21.21;53.20
74346;BME280;62776;50.518;6.732;2023-08-31T14:52:08;96159.69;;;21.71;53.76
74346;BME280;62776;50.518;6.732;2023-08-31T14:55:00;96155.03;;;22.33;52.26
74346;BME280;62776;50.518;6.732;2023-08-31T14:57:47;96156.50;;;22.37;52.19
74346;BME280;62776;50.518;6.732;2023-08-31T15:00:43;96169.00;;;22.63;52.34
74346;BME280;62776;50.518;6.732;2023-08-31T15:03:35;96163.53;;;21.96;50.59
74346;BME280;62776;50.518;6.732;2023-08-31T15:06:22;96163.44;;;21.39;53.03
74346;BME280;62776;50.518;6.732;2023-08-31T15:09:08;96166.91;;;20.94;54.20
74346;BME280;62776;50.518;6.732;2023-08-31T15:11:55;96172.81;;;20.84;54.92
74346;BME280;62776;50.518;6.732;2023-08-31T15:14:44;96163.19;;;20.51;57.41
74346;BME280;62776;50.518;6.732;2023-08-31T15:17:32;96169.47;;;20.33;57.79
74346;BME280;62776;50.518;6.732;2023-08-31T15:20:22;96185.03;;;19.89;61.62
74346;BME280;62776;50.518;6.732;2023-08-31T15:23:29;96178.16;;;19.70;62.38
74346;BME280;62776;50.518;6.732;2023-08-31T15:26:23;96180.63;;;19.73;65.44
74346;BME280;62776;50.518;6.732;2023-08-31T15:29:14;96178.44;;;19.81;66.33
74346;BME280;62776;50.518;6.732;2023-08-31T15:32:03;96174.16;;;19.63;65.06
74346;BME280;62776;50.518;6.732;2023-08-31T15:34:58;96188.66;;;19.54;67.40
74346;BME280;62776;50.518;6.732;2023-08-31T15:37:45;96181.44;;;19.40;65.98
74346;BME280;62776;50.518;6.732;2023-08-31T15:40:33;96177.41;;;19.33;67.41
74346;BME280;62776;50.518;6.732;2023-08-31T15:43:20;96177.47;;;19.32;67.83
74346;BME280;62776;50.518;6.732;2023-08-31T15:46:07;96179.00;;;19.19;68.38
74346;BME280;62776;50.518;6.732;2023-08-31T15:49:16;96181.41;;;19.06;68.65
74346;BME280;62776;50.518;6.732;2023-08-31T15:52:07;96181.09;;;18.95;70.02
74346;BME280;62776;50.518;6.732;2023-08-31T15:54:54;96180.16;;;18.96;71.84
74346;BME280;62776;50.518;6.732;2023-08-31T15:57:50;96185.69;;;18.73;70.31
74346;BME280;62776;50.518;6.732;2023-08-31T16:00:43;96189.09;;;18.75;72.84
74346;BME280;62776;50.518;6.732;2023-08-31T16:03:32;96183.53;;;18.62;73.47
74346;BME280;62776;50.518;6.732;2023-08-31T16:06:22;96183.50;;;18.64;73.67
74346;BME280;62776;50.518;6.732;2023-08-31T16:09:09;96187.19;;;18.60;74.63